Time,TemperatureF,DewpointF,PressureIn,WindDirection,WindDirectionDegrees,WindSpeedMPH,WindSpeedGustMPH,Humidity,HourlyPrecipIn,Conditions,Clouds,dailyrainin,SolarRadiationWatts/m^2,SoftwareType,DateUTC
2013-09-22 00:00:00,53.0,48.0,-100.00,East,90,2.0,-999.0,82,-99.99,,,-99.99,0.000000,,2013-09-22 04:00:00,
2013-09-22 00:44:00,53.0,48.0,-100.00,East,90,2.0,-999.0,82,-99.99,,,-99.99,0.000000,,2013-09-22 04:44:00,
2013-09-22 00:54:00,53.0,48.0,-100.00,East,90,2.0,-999.0,82,-99.99,,,-99.99,0.000000,,2013-09-22 04:54:00,
2013-09-22 01:00:00,53.0,48.0,-100.00,ESE,112,1.0,-999.0,85,-99.99,,,-99.99,0.000000,,2013-09-22 05:00:00,
2013-09-22 01:43:00,53.0,48.0,-100.00,ESE,112,1.0,-999.0,85,-99.99,,,-99.99,0.000000,,2013-09-22 05:43:00,
2013-09-22 01:53:00,53.0,48.0,-100.00,ESE,112,1.0,-999.0,85,-99.99,,,-99.99,0.000000,,2013-09-22 05:53:00,
2013-09-22 02:00:00,52.0,49.0,-100.00,ENE,67,1.0,-999.0,86,-99.99,,,-99.99,0.000000,,2013-09-22 06:00:00,
2013-09-22 02:42:00,52.0,49.0,-100.00,ENE,67,1.0,-999.0,86,-99.99,,,-99.99,0.000000,,2013-09-22 06:42:00,
2013-09-22 02:52:00,52.0,49.0,-100.00,ENE,67,1.0,-999.0,86,-99.99,,,-99.99,0.000000,,2013-09-22 06:52:00,
2013-09-22 03:00:00,52.0,48.0,-100.00,NE,45,1.0,-999.0,86,-99.99,,,-99.99,0.000000,,2013-09-22 07:00:00,
2013-09-22 03:42:00,52.0,48.0,-100.00,NE,45,1.0,-999.0,86,-99.99,,,-99.99,0.000000,,2013-09-22 07:42:00,
2013-09-22 03:52:00,52.0,48.0,-100.00,NE,45,1.0,-999.0,86,-99.99,,,-99.99,0.000000,,2013-09-22 07:52:00,
2013-09-22 04:00:00,49.0,46.0,-100.00,ESE,112,2.0,-999.0,88,-99.99,,,-99.99,0.000000,,2013-09-22 08:00:00,
2013-09-22 04:42:00,49.0,46.0,-100.00,ESE,112,2.0,-999.0,88,-99.99,,,-99.99,0.000000,,2013-09-22 08:42:00,
2013-09-22 04:52:00,49.0,46.0,-100.00,ESE,112,2.0,-999.0,88,-99.99,,,-99.99,0.000000,,2013-09-22 08:52:00,
2013-09-22 05:00:00,47.0,44.0,-100.00,ESE,112,1.0,-999.0,89,-99.99,,,-99.99,0.000000,,2013-09-22 09:00:00,
2013-09-22 05:43:00,47.0,44.0,-100.00,ESE,112,1.0,-999.0,89,-99.99,,,-99.99,0.000000,,2013-09-22 09:43:00,
2013-09-22 05:54:00,47.0,44.0,-100.00,ESE,112,1.0,-999.0,89,-99.99,,,-99.99,0.000000,,2013-09-22 09:54:00,
2013-09-22 06:44:00,47.0,45.0,-100.00,ESE,112,0.0,-999.0,91,-99.99,,,-99.99,0.000000,,2013-09-22 10:44:00,
2013-09-22 06:53:00,47.0,45.0,-100.00,ESE,112,0.0,-999.0,91,-99.99,,,-99.99,0.000000,,2013-09-22 10:53:00,
2013-09-22 07:00:00,45.0,43.0,-100.00,East,90,0.0,-999.0,91,-99.99,,,-99.99,0.000000,,2013-09-22 11:00:00,
2013-09-22 07:42:00,45.0,43.0,-100.00,East,90,0.0,-999.0,91,-99.99,,,-99.99,0.000000,,2013-09-22 11:42:00,
2013-09-22 07:52:00,45.0,43.0,-100.00,East,90,0.0,-999.0,91,-99.99,,,-99.99,0.000000,,2013-09-22 11:52:00,
2013-09-22 08:00:00,43.0,42.0,-100.00,ENE,67,0.0,-999.0,93,-99.99,,,-99.99,6.960000,,2013-09-22 12:00:00,
2013-09-22 08:42:00,43.0,42.0,-100.00,ENE,67,0.0,-999.0,93,-99.99,,,-99.99,6.960000,,2013-09-22 12:42:00,
2013-09-22 08:52:00,43.0,42.0,-100.00,ENE,67,0.0,-999.0,93,-99.99,,,-99.99,6.960000,,2013-09-22 12:52:00,
2013-09-22 09:00:00,48.0,44.0,-100.00,East,90,1.0,-999.0,85,-99.99,,,-99.99,102.080002,,2013-09-22 13:00:00,
2013-09-22 09:42:00,48.0,44.0,-100.00,East,90,1.0,-999.0,85,-99.99,,,-99.99,102.080002,,2013-09-22 13:42:00,
2013-09-22 09:52:00,48.0,44.0,-100.00,East,90,1.0,-999.0,85,-99.99,,,-99.99,102.080002,,2013-09-22 13:52:00,
2013-09-22 10:00:00,50.0,43.0,-100.00,SE,135,2.0,-999.0,75,-99.99,,,-99.99,141.520004,,2013-09-22 14:00:00,
2013-09-22 10:42:00,50.0,43.0,-100.00,SE,135,2.0,-999.0,75,-99.99,,,-99.99,141.520004,,2013-09-22 14:42:00,
2013-09-22 10:52:00,50.0,43.0,-100.00,SE,135,2.0,-999.0,75,-99.99,,,-99.99,141.520004,,2013-09-22 14:52:00,
2013-09-22 11:00:00,52.0,42.0,-100.00,SE,135,3.0,-999.0,66,-99.99,,,-99.99,196.039993,,2013-09-22 15:00:00,
2013-09-22 11:44:00,52.0,42.0,-100.00,SE,135,3.0,-999.0,66,-99.99,,,-99.99,196.039993,,2013-09-22 15:44:00,
2013-09-22 11:55:00,52.0,42.0,-100.00,SE,135,3.0,-999.0,66,-99.99,,,-99.99,196.039993,,2013-09-22 15:55:00,
2013-09-22 12:00:00,54.0,42.0,-100.00,ESE,112,5.0,-999.0,64,-99.99,,,-99.99,236.639999,,2013-09-22 16:00:00,
2013-09-22 12:43:00,54.0,42.0,-100.00,ESE,112,5.0,-999.0,64,-99.99,,,-99.99,236.639999,,2013-09-22 16:43:00,
2013-09-22 12:54:00,54.0,42.0,-100.00,ESE,112,5.0,-999.0,64,-99.99,,,-99.99,236.639999,,2013-09-22 16:54:00,
2013-09-22 13:00:00,55.0,42.0,-100.00,ESE,112,6.0,-999.0,61,-99.99,,,-99.99,300.440002,,2013-09-22 17:00:00,
2013-09-22 13:43:00,55.0,42.0,-100.00,ESE,112,6.0,-999.0,61,-99.99,,,-99.99,300.440002,,2013-09-22 17:43:00,
2013-09-22 13:53:00,55.0,42.0,-100.00,ESE,112,6.0,-999.0,61,-99.99,,,-99.99,300.440002,,2013-09-22 17:53:00,
2013-09-22 14:00:00,56.0,42.0,-100.00,East,90,7.0,-999.0,59,-99.99,,,-99.99,338.720001,,2013-09-22 18:00:00,
2013-09-22 14:42:00,56.0,42.0,-100.00,East,90,7.0,-999.0,59,-99.99,,,-99.99,338.720001,,2013-09-22 18:42:00,
2013-09-22 14:52:00,56.0,42.0,-100.00,East,90,7.0,-999.0,59,-99.99,,,-99.99,338.720001,,2013-09-22 18:52:00,
2013-09-22 15:00:00,56.0,42.0,-100.00,ESE,112,6.0,-999.0,59,-99.99,,,-99.99,278.399994,,2013-09-22 19:00:00,
2013-09-22 15:42:00,56.0,42.0,-100.00,ESE,112,6.0,-999.0,59,-99.99,,,-99.99,278.399994,,2013-09-22 19:42:00,
2013-09-22 15:52:00,56.0,42.0,-100.00,ESE,112,6.0,-999.0,59,-99.99,,,-99.99,278.399994,,2013-09-22 19:52:00,
2013-09-22 16:00:00,56.0,42.0,-100.00,ESE,112,4.0,-999.0,60,-99.99,,,-99.99,225.039993,,2013-09-22 20:00:00,
2013-09-22 16:42:00,56.0,42.0,-100.00,ESE,112,4.0,-999.0,60,-99.99,,,-99.99,225.039993,,2013-09-22 20:42:00,
2013-09-22 16:52:00,56.0,42.0,-100.00,ESE,112,4.0,-999.0,60,-99.99,,,-99.99,225.039993,,2013-09-22 20:52:00,
2013-09-22 17:00:00,56.0,42.0,-100.00,ESE,112,5.0,-999.0,60,-99.99,,,-99.99,185.600006,,2013-09-22 21:00:00,
2013-09-22 17:45:00,56.0,42.0,-100.00,ESE,112,5.0,-999.0,60,-99.99,,,-99.99,185.600006,,2013-09-22 21:45:00,
2013-09-22 17:54:00,56.0,42.0,-100.00,ESE,112,5.0,-999.0,60,-99.99,,,-99.99,185.600006,,2013-09-22 21:54:00,
2013-09-22 18:00:00,55.0,42.0,-100.00,SE,135,4.0,-999.0,62,-99.99,,,-99.99,113.680000,,2013-09-22 22:00:00,
2013-09-22 18:43:00,55.0,42.0,-100.00,SE,135,4.0,-999.0,62,-99.99,,,-99.99,113.680000,,2013-09-22 22:43:00,
2013-09-22 18:54:00,55.0,42.0,-100.00,SE,135,4.0,-999.0,62,-99.99,,,-99.99,113.680000,,2013-09-22 22:54:00,
2013-09-22 19:00:00,54.0,42.0,-100.00,SE,135,3.0,-999.0,64,-99.99,,,-99.99,44.080002,,2013-09-22 23:00:00,
2013-09-22 19:43:00,54.0,42.0,-100.00,SE,135,3.0,-999.0,64,-99.99,,,-99.99,44.080002,,2013-09-22 23:43:00,
2013-09-22 19:52:00,54.0,42.0,-100.00,SE,135,3.0,-999.0,64,-99.99,,,-99.99,44.080002,,2013-09-22 23:52:00,
2013-09-22 20:00:00,53.0,43.0,-100.00,ESE,112,2.0,-999.0,69,-99.99,,,-99.99,5.800000,,2013-09-23 00:00:00,
2013-09-22 20:42:00,53.0,43.0,-100.00,ESE,112,2.0,-999.0,69,-99.99,,,-99.99,5.800000,,2013-09-23 00:42:00,
2013-09-22 20:53:00,53.0,43.0,-100.00,ESE,112,2.0,-999.0,69,-99.99,,,-99.99,5.800000,,2013-09-23 00:53:00,
2013-09-22 21:00:00,52.0,43.0,-100.00,ESE,112,1.0,-999.0,72,-99.99,,,-99.99,0.000000,,2013-09-23 01:00:00,
2013-09-22 21:43:00,52.0,43.0,-100.00,ESE,112,1.0,-999.0,72,-99.99,,,-99.99,0.000000,,2013-09-23 01:43:00,
2013-09-22 21:52:00,52.0,43.0,-100.00,ESE,112,1.0,-999.0,72,-99.99,,,-99.99,0.000000,,2013-09-23 01:52:00,
2013-09-22 22:00:00,51.0,44.0,-100.00,SE,135,1.0,-999.0,75,-99.99,,,-99.99,0.000000,,2013-09-23 02:00:00,
2013-09-22 22:42:00,51.0,44.0,-100.00,SE,135,1.0,-999.0,75,-99.99,,,-99.99,0.000000,,2013-09-23 02:42:00,
2013-09-22 22:52:00,51.0,44.0,-100.00,SE,135,1.0,-999.0,75,-99.99,,,-99.99,0.000000,,2013-09-23 02:52:00,
2013-09-22 23:00:00,51.0,44.0,-100.00,South,180,1.0,-999.0,76,-99.99,,,-99.99,0.000000,,2013-09-23 03:00:00,
2013-09-22 23:44:00,51.0,44.0,-100.00,South,180,1.0,-999.0,76,-99.99,,,-99.99,0.000000,,2013-09-23 03:44:00,
2013-09-22 23:54:00,51.0,44.0,-100.00,South,180,1.0,-999.0,76,-99.99,,,-99.99,0.000000,,2013-09-23 03:54:00,